KBAB/BAB METAR and TAF weather

Enter ICAO airport designator
Station Type Date Time Source
KBAB METAR 2019/10/16 18:56 UTC NOAA

KBAB 161856Z AUTO 17004KT 8SM CLR 22/05 A2996 RMK AO2 SLP148 T02180048 $


Station Type Date Time Source
KBAB Decoded METAR 2019/10/16 18:56 UTC NOAA

Marysville, Beale Air Force Base, CA, United States (KBAB) 39-08N 121-26W
Oct 16, 2019 - 02:56 PM EDT / 2019.10.16 1856 UTC
Wind: from the S (170 degrees) at 5 MPH (4 KT):0
Visibility: 8 mile(s):0
Sky conditions: clear
Temperature: 71.2 F (21.8 C)
Dew Point: 40.6 F (4.8 C)
Relative Humidity: 32%
Pressure (altimeter): 29.96 in. Hg (1014 hPa)
ob: KBAB 161856Z AUTO 17004KT 8SM CLR 22/05 A2996 RMK AO2 SLP148 T02180048
cycle: 19

Station Type Date Time Source
KBAB TAF 2019/10/16 19:06 UTC NOAA

TAF TAF KBAB 1619/1801 VRB06KT 9999 SCT250 QNH2986INS
BECMG 1701/1702 18009KT 9999 BKN200 QNH2985INS
BECMG 1708/1709 11009KT 9999 SCT009 BKN015 QNH2986INS
TEMPO 1709/1713 8000 -SHRA BKN009
BECMG 1720/1721 33009KT 9999 FEW050 QNH2989INS TX24/1621Z TN14/1711Z

Example: see airport list